Omalius — ORRS — position and weather

sailwx.info

Track history (hours):
 
Tides and Currents Weather Stations Pressure Air Temp Water Temp Dewpoint Dewpoint Depression Visibility Wind Speed Wind Dir Waves Ship Positions

Omalius

Last reported at 2017-Sep-22 01:58 UTC. Time now 2017-Sep-22 22:39 UTC.
Position N 47°17' W 002°12'.

Length 83 m; draft 6 m.

Type: Other ship. MMSI: 205682000.

Date/timePositionNaut miles runAvg speedWind from/ knotsBaromVisibWave heightAir tempDewpointWater temp
2017-Sep-22 01:58N 47°17' W 002°12'0 0.0
2017-Sep-22 01:28N 47°17' W 002°12'0 0.0
2017-Sep-22 00:58N 47°17' W 002°12'0 0.0
2017-Sep-22 00:25N 47°17' W 002°12'0 0.0
2017-Sep-21 23:58N 47°17' W 002°12'0 0.0
2017-Sep-21 23:28N 47°17' W 002°12'0 0.0
2017-Sep-21 22:58N 47°17' W 002°12'0 0.0
2017-Sep-21 22:22N 47°17' W 002°12'0 0.0
2017-Sep-21 21:58N 47°17' W 002°12'0 0.0
2017-Sep-21 21:25N 47°17' W 002°12'0 0.0
2017-Sep-21 20:55N 47°17' W 002°12'0 0.0
2017-Sep-21 20:25N 47°17' W 002°12'0 0.0
2017-Sep-21 19:55N 47°17' W 002°12'0 0.0
2017-Sep-21 19:28N 47°17' W 002°12'0 0.0
2017-Sep-21 18:58N 47°17' W 002°12'0 0.0
2017-Sep-21 18:25N 47°17' W 002°12'0 0.0
2017-Sep-21 17:58N 47°17' W 002°12'0 0.0
2017-Sep-21 17:28N 47°17' W 002°12'0 0.0
2017-Sep-21 16:58N 47°17' W 002°12'0 0.0
2017-Sep-21 16:28N 47°17' W 002°12'0 0.0
2017-Sep-21 11:43N 47°17' W 002°12'0 0.0
2017-Sep-21 11:28N 47°17' W 002°12'0 0.0
2017-Sep-21 10:58N 47°17' W 002°12'0 0.0
2017-Sep-21 10:28N 47°17' W 002°12'0 0.0
2017-Sep-21 09:58N 47°17' W 002°12'0 0.0
2017-Sep-21 09:28N 47°17' W 002°12'0 0.0
2017-Sep-21 08:58N 47°17' W 002°12'0 0.0
2017-Sep-21 08:28N 47°17' W 002°12'0 0.0
2017-Sep-21 07:58N 47°17' W 002°12'0 0.0
2017-Sep-21 07:28N 47°17' W 002°12'0 0.0
2017-Sep-21 06:58N 47°17' W 002°12'0 0.0
2017-Sep-21 06:22N 47°17' W 002°12'0 0.0
2017-Sep-21 05:55N 47°17' W 002°12'0 0.0
2017-Sep-21 05:28N 47°17' W 002°12'0 0.0
2017-Sep-21 05:00N 47°17' W 002°12'0 0.0
2017-Sep-21 04:30N 47°17' W 002°12'1 1.3
2017-Sep-21 04:00N 47°17' W 002°12'0 0.5
2017-Sep-21 03:30N 47°16' W 002°12'1 1.1
2017-Sep-21 03:00N 47°16' W 002°12'4 7.7
2017-Sep-21 02:30N 47°13' W 002°16'511.0
2017-Sep-21 02:00N 47°08' W 002°21'3 5.8
2017-Sep-21 01:30N 47°06' W 002°23'5 9.5
2017-Sep-21 01:00N 47°03' W 002°29'5 9.6
2017-Sep-21 00:30N 47°01' W 002°35'5 9.2
2017-Sep-21 00:00N 46°59' W 002°41'1 1.9
2017-Sep-20 23:30N 46°58' W 002°40'3 6.7
2017-Sep-20 23:00N 46°55' W 002°38'3 6.9
2017-Sep-20 22:30N 46°53' W 002°34'0 0.0
2017-Sep-20 22:00N 46°53' W 002°34'0 0.0
2017-Sep-20 21:30N 46°53' W 002°34'0 0.0
2017-Sep-20 21:00N 46°53' W 002°34'0 0.0
2017-Sep-20 20:30N 46°53' W 002°34'0 0.0
2017-Sep-20 20:01N 46°53' W 002°34'0 0.0
2017-Sep-20 19:30N 46°53' W 002°34'0 0.0
2017-Sep-20 19:00N 46°53' W 002°34'0 0.0
2017-Sep-20 18:30N 46°53' W 002°34'0 0.0
2017-Sep-20 18:00N 46°53' W 002°34'0 0.0
2017-Sep-20 17:30N 46°53' W 002°34'0 0.0
2017-Sep-20 16:59N 46°53' W 002°34'0 0.0
2017-Sep-20 16:30N 46°53' W 002°34'0 0.0
2017-Sep-20 15:59N 46°53' W 002°34'0 0.0
2017-Sep-20 15:30N 46°53' W 002°34'0 0.0
2017-Sep-20 15:00N 46°53' W 002°34'0 0.0
2017-Sep-20 14:00N 46°53' W 002°34'0 0.0
2017-Sep-20 13:29N 46°53' W 002°34'0 0.0
2017-Sep-20 13:00N 46°53' W 002°34'0 0.0
2017-Sep-20 12:30N 46°53' W 002°34'0 0.0
2017-Sep-20 11:59N 46°53' W 002°34'0 0.0
2017-Sep-20 11:30N 46°53' W 002°34'0 0.0
2017-Sep-20 10:59N 46°53' W 002°34'0 0.0
2017-Sep-20 10:30N 46°53' W 002°34'0 0.0
2017-Sep-20 09:59N 46°53' W 002°34'0 0.0
2017-Sep-20 09:30N 46°53' W 002°34'0 0.0
2017-Sep-20 09:00N 46°53' W 002°34'0 0.0
2017-Sep-20 08:30N 46°53' W 002°34'0 0.0
2017-Sep-20 08:00N 46°53' W 002°34'0 0.0
2017-Sep-20 07:30N 46°53' W 002°34'0 0.0
2017-Sep-20 07:00N 46°53' W 002°34'0 0.0
2017-Sep-20 06:30N 46°53' W 002°34'0 0.0
2017-Sep-20 06:00N 46°53' W 002°34'0 0.0
2017-Sep-20 05:30N 46°53' W 002°34'0 0.0
2017-Sep-20 05:00N 46°53' W 002°34'0 0.0
2017-Sep-20 04:30N 46°53' W 002°34'0 0.0
2017-Sep-20 04:00N 46°53' W 002°34'0 0.0
2017-Sep-20 03:30N 46°53' W 002°34'0 0.0
2017-Sep-20 03:00N 46°53' W 002°34'0 0.0
2017-Sep-20 02:30N 46°53' W 002°34'0 0.0
2017-Sep-20 01:59N 46°53' W 002°34'0 0.0
2017-Sep-20 01:30N 46°53' W 002°34'0 0.0
2017-Sep-20 01:00N 46°53' W 002°34'0 0.0
2017-Sep-20 00:30N 46°53' W 002°34'0 0.0
2017-Sep-20 00:00N 46°53' W 002°34'0 0.0
2017-Sep-19 23:30N 46°53' W 002°34'0 0.0
2017-Sep-19 23:00N 46°53' W 002°34'0 0.0
2017-Sep-19 22:30N 46°53' W 002°34'0 0.0
2017-Sep-19 22:00N 46°53' W 002°34'0 0.0
2017-Sep-19 21:30N 46°53' W 002°34'0 0.0
2017-Sep-19 20:55N 46°53' W 002°34'0 0.0
2017-Sep-19 20:30N 46°53' W 002°34'0 0.0
2017-Sep-19 20:00N 46°53' W 002°34'0 0.0
2017-Sep-19 19:27N 46°53' W 002°34'0 0.0
2017-Sep-19 19:00N 46°53' W 002°34'0 0.0
2017-Sep-19 18:29N 46°53' W 002°34'0 0.0
2017-Sep-19 18:00N 46°53' W 002°34'0 0.0
2017-Sep-19 17:25N 46°53' W 002°34'0 0.0
2017-Sep-19 16:28N 46°53' W 002°34'0 0.0
2017-Sep-19 12:50N 46°53' W 002°34'0 0.0
2017-Sep-19 12:21N 46°53' W 002°34'0 0.0
2017-Sep-19 11:14N 46°53' W 002°34'0 0.0
2017-Sep-19 10:44N 46°53' W 002°34'0 0.0
2017-Sep-19 10:02N 46°53' W 002°34'0 0.0
2017-Sep-19 09:57N 46°53' W 002°34'0 0.0
2017-Sep-19 09:30N 46°53' W 002°34'0 0.0
2017-Sep-19 08:55N 46°53' W 002°34'0 0.0
2017-Sep-19 08:30N 46°53' W 002°34'0 0.0
2017-Sep-19 08:00N 46°53' W 002°34'0 0.0
2017-Sep-19 07:18N 46°53' W 002°34'0 0.0
2017-Sep-19 06:58N 46°53' W 002°34'0 0.0
2017-Sep-19 06:13N 46°53' W 002°34'0 0.0
2017-Sep-19 05:51N 46°53' W 002°34'0 0.0
2017-Sep-19 05:20N 46°53' W 002°34'0 0.0
2017-Sep-19 04:32N 46°53' W 002°34'0 0.0
2017-Sep-19 04:23N 46°53' W 002°34'0 0.0
2017-Sep-19 03:58N 46°53' W 002°34'0 0.0
2017-Sep-19 03:18N 46°53' W 002°34'0 0.0
2017-Sep-19 02:57N 46°53' W 002°34'0 0.0
2017-Sep-19 02:30N 46°53' W 002°34'0 0.0
2017-Sep-19 01:56N 46°53' W 002°34'0 0.0
2017-Sep-19 01:16N 46°53' W 002°34'0 0.0
2017-Sep-19 00:59N 46°53' W 002°34'0 0.0
2017-Sep-19 00:25N 46°53' W 002°34'0 0.0
2017-Sep-18 23:57N 46°53' W 002°34'0 0.0
2017-Sep-18 23:25N 46°53' W 002°34'0 0.0
2017-Sep-18 22:44N 46°53' W 002°34'0 0.1
2017-Sep-18 22:24N 46°53' W 002°34'0 0.9
2017-Sep-18 21:59N 46°53' W 002°35'4 7.6
2017-Sep-18 21:27N 46°50' W 002°31'1 0.1
2017-Sep-18 09:02N 46°49' W 002°29'0 0.0
2017-Sep-18 08:51N 46°49' W 002°29'0 0.0
2017-Sep-18 08:28N 46°49' W 002°29'0 0.0
2017-Sep-18 06:32N 46°49' W 002°29'0 0.0
2017-Sep-18 05:28N 46°49' W 002°29'0 0.0
2017-Sep-18 05:00N 46°49' W 002°29'0 0.0
2017-Sep-18 04:26N 46°49' W 002°29'0 0.0
2017-Sep-18 03:59N 46°49' W 002°29'0 0.0
2017-Sep-18 03:14N 46°49' W 002°29'0 0.0
2017-Sep-18 02:52N 46°49' W 002°29'0 0.0
2017-Sep-18 02:30N 46°49' W 002°29'0 0.0
2017-Sep-18 01:52N 46°49' W 002°29'0 0.0
2017-Sep-18 00:57N 46°49' W 002°29'0 0.0
2017-Sep-16 04:21N 46°49' W 002°29'0 0.2
2017-Sep-16 04:00N 46°49' W 002°29'0 0.0
2017-Sep-15 23:24N 46°49' W 002°29'0 0.0
2017-Sep-15 22:50N 46°49' W 002°29'14 1.5
2017-Sep-15 13:26N 47°03' W 002°28'611.0
2017-Sep-15 12:55N 47°07' W 002°23'410.0
2017-Sep-15 12:30N 47°10' W 002°19'510.5
2017-Sep-15 12:00N 47°14' W 002°15'2 4.9
2017-Sep-15 11:30N 47°16' W 002°12'0 0.8
2017-Sep-15 11:00N 47°17' W 002°12'0 0.9
2017-Sep-15 10:30N 47°17' W 002°12'0 0.0
2017-Sep-15 10:00N 47°17' W 002°12'0 0.0
2017-Sep-15 09:28N 47°17' W 002°12'0 0.0
2017-Sep-15 08:58N 47°17' W 002°12'0 0.0
2017-Sep-15 08:28N 47°17' W 002°12'0 0.0
2017-Sep-15 07:58N 47°17' W 002°12'0 0.0
2017-Sep-15 07:25N 47°17' W 002°12'0 0.0
2017-Sep-15 06:58N 47°17' W 002°12'0 0.0
2017-Sep-15 06:25N 47°17' W 002°12'0 0.0
2017-Sep-15 05:58N 47°17' W 002°12'0 0.0
2017-Sep-15 05:28N 47°17' W 002°12'0 0.0
2017-Sep-15 04:58N 47°17' W 002°12'0 0.0
2017-Sep-15 04:28N 47°17' W 002°12'0 0.0
2017-Sep-15 03:58N 47°17' W 002°12'0 0.0
2017-Sep-15 03:28N 47°17' W 002°12'0 0.0
2017-Sep-15 02:58N 47°17' W 002°12'0 0.0
2017-Sep-15 02:28N 47°17' W 002°12'0 0.0
2017-Sep-15 01:58N 47°17' W 002°12'0 0.0
2017-Sep-15 01:25N 47°17' W 002°12'0 0.0
2017-Sep-15 00:58N 47°17' W 002°12'0 0.0
2017-Sep-15 00:28N 47°17' W 002°12'0 0.0
2017-Sep-14 23:58N 47°17' W 002°12'0 0.0
2017-Sep-14 23:25N 47°17' W 002°12'0 0.0
2017-Sep-14 22:55N 47°17' W 002°12'0 0.0
2017-Sep-14 22:28N 47°17' W 002°12'0 0.0
2017-Sep-14 21:58N 47°17' W 002°12'0 0.0
2017-Sep-14 21:28N 47°17' W 002°12'0 0.0
2017-Sep-14 20:58N 47°17' W 002°12'0 0.0
2017-Sep-14 20:28N 47°17' W 002°12'0 0.0
2017-Sep-14 19:58N 47°17' W 002°12'0 0.0
2017-Sep-14 18:46N 47°17' W 002°12'0 0.0
2017-Sep-14 18:19N 47°17' W 002°12'0 0.0
2017-Sep-14 17:55N 47°17' W 002°12'0 0.0
2017-Sep-14 17:22N 47°17' W 002°12'0 0.0
2017-Sep-14 16:58N 47°17' W 002°12'0 0.0
2017-Sep-14 16:28N 47°17' W 002°12'0 0.0
2017-Sep-14 15:57N 47°17' W 002°12'0 0.0
2017-Sep-14 15:24N 47°17' W 002°12'0 0.0
2017-Sep-14 08:15N 47°17' W 002°12'0 0.0
2017-Sep-14 07:51N 47°17' W 002°12'0 0.0
2017-Sep-14 07:24N 47°17' W 002°12'0 0.0
2017-Sep-14 06:57N 47°17' W 002°12'0 0.0
2017-Sep-14 06:30N 47°17' W 002°12'0 0.0
2017-Sep-14 05:57N 47°17' W 002°12'0 0.0
2017-Sep-14 05:09N 47°17' W 002°12'0 0.0
2017-Sep-14 04:57N 47°17' W 002°12'0 0.0
2017-Sep-14 04:27N 47°17' W 002°12'0 0.0
2017-Sep-14 04:00N 47°17' W 002°12'0 0.0
2017-Sep-14 03:21N 47°17' W 002°12'0 0.0
2017-Sep-14 02:57N 47°17' W 002°12'0 0.0
2017-Sep-14 02:27N 47°17' W 002°12'0 0.0
2017-Sep-14 02:00N 47°17' W 002°12'0 0.0
2017-Sep-14 01:30N 47°17' W 002°12'0 0.0
2017-Sep-14 01:00N 47°17' W 002°12'0 0.0
2017-Sep-14 00:24N 47°17' W 002°12'0 0.0
2017-Sep-14 00:00N 47°17' W 002°12'0 0.0
2017-Sep-13 23:30N 47°17' W 002°12'0 0.0
2017-Sep-13 22:45N 47°17' W 002°12'0 0.0
2017-Sep-13 22:30N 47°17' W 002°12'0 0.0
2017-Sep-13 21:57N 47°17' W 002°12'0 0.0
2017-Sep-13 21:27N 47°17' W 002°12'0 0.0
2017-Sep-13 20:57N 47°17' W 002°12'0 0.0
2017-Sep-13 20:18N 47°17' W 002°12'0 0.0
2017-Sep-13 19:57N 47°17' W 002°12'0 0.0
2017-Sep-13 19:27N 47°17' W 002°12'0 0.0
2017-Sep-13 19:00N 47°17' W 002°12'0 0.0
2017-Sep-13 18:27N 47°17' W 002°12'0 0.0
2017-Sep-13 18:00N 47°17' W 002°12'0 0.0
2017-Sep-13 17:18N 47°17' W 002°12'0 0.0
2017-Sep-13 16:57N 47°17' W 002°12'0 0.0
2017-Sep-13 15:48N 47°17' W 002°12'0 0.0
2017-Sep-13 15:30N 47°17' W 002°12'0 0.0
2017-Sep-13 15:00N 47°17' W 002°12'0 0.0
2017-Sep-13 14:21N 47°17' W 002°12'0 0.0
2017-Sep-13 13:57N 47°17' W 002°12'0 0.0
2017-Sep-13 13:15N 47°17' W 002°12'0 0.0
2017-Sep-13 13:00N 47°17' W 002°12'0 0.0
2017-Sep-13 12:30N 47°17' W 002°12'0 0.0
2017-Sep-13 11:51N 47°17' W 002°12'0 0.0
2017-Sep-13 11:30N 47°17' W 002°12'0 0.0
2017-Sep-13 10:33N 47°17' W 002°12'0 0.0
2017-Sep-13 10:06N 47°17' W 002°12'0 0.0
2017-Sep-13 10:00N 47°17' W 002°12'0 0.0
2017-Sep-13 08:27N 47°17' W 002°12'0 0.0
2017-Sep-13 07:57N 47°17' W 002°12'0 0.0
2017-Sep-13 07:24N 47°17' W 002°12'0 0.0
2017-Sep-13 06:57N 47°17' W 002°12'0 0.0
2017-Sep-13 06:27N 47°17' W 002°12'0 0.0
2017-Sep-13 06:00N 47°17' W 002°12'0 0.0
2017-Sep-13 05:30N 47°17' W 002°12'0 0.0
2017-Sep-13 05:00N 47°17' W 002°12'0 0.0
2017-Sep-13 04:30N 47°17' W 002°12'0 0.0
2017-Sep-13 03:51N 47°17' W 002°12'0 0.0
2017-Sep-13 03:24N 47°17' W 002°12'0 0.0
2017-Sep-13 03:00N 47°17' W 002°12'0 0.0
2017-Sep-13 02:30N 47°17' W 002°12'0 0.0
2017-Sep-13 02:00N 47°17' W 002°12'0 0.0
2017-Sep-13 01:27N 47°17' W 002°12'0 0.0
2017-Sep-13 01:00N 47°17' W 002°12'0 0.0
2017-Sep-13 00:27N 47°17' W 002°12'0 0.0
2017-Sep-12 23:59N 47°17' W 002°12'0 0.0
2017-Sep-12 23:29N 47°17' W 002°12'0 0.0
2017-Sep-12 22:56N 47°17' W 002°12'0 0.0
2017-Sep-12 22:29N 47°17' W 002°12'0 0.0
2017-Sep-12 21:59N 47°17' W 002°12'0 0.0
2017-Sep-12 21:29N 47°17' W 002°12'0 0.0
2017-Sep-12 20:59N 47°17' W 002°12'0 0.0
2017-Sep-12 20:29N 47°17' W 002°12'0 0.0
2017-Sep-12 19:59N 47°17' W 002°12'0 0.0
2017-Sep-12 19:29N 47°17' W 002°12'0 0.0
2017-Sep-12 18:53N 47°17' W 002°12'0 0.0
2017-Sep-12 18:29N 47°17' W 002°12'0 0.0
2017-Sep-12 17:59N 47°17' W 002°12'0 0.0
2017-Sep-12 15:47N 47°17' W 002°12'0 0.0
2017-Sep-12 15:17N 47°17' W 002°12'0 0.0
2017-Sep-12 14:53N 47°17' W 002°12'0 0.0
2017-Sep-12 14:26N 47°17' W 002°12'0 0.0
2017-Sep-12 13:23N 47°17' W 002°12'0 0.0
2017-Sep-12 12:56N 47°17' W 002°12'0 0.0
2017-Sep-12 12:29N 47°17' W 002°12'0 0.0
2017-Sep-12 10:23N 47°17' W 002°12'0 0.0
2017-Sep-12 09:56N 47°17' W 002°12'0 0.0
2017-Sep-12 09:23N 47°17' W 002°12'0 0.0
2017-Sep-12 08:53N 47°17' W 002°12'0 0.0
2017-Sep-12 08:29N 47°17' W 002°12'0 0.0
2017-Sep-12 07:59N 47°17' W 002°12'0 0.0
2017-Sep-12 07:26N 47°17' W 002°12'0 0.0
2017-Sep-12 06:53N 47°17' W 002°12'0 0.0
2017-Sep-12 06:29N 47°17' W 002°12'0 0.0
2017-Sep-12 05:59N 47°17' W 002°12'0 0.0
2017-Sep-12 05:26N 47°17' W 002°12'0 0.0
2017-Sep-12 04:59N 47°17' W 002°12'0 0.0
2017-Sep-12 04:29N 47°17' W 002°12'0 0.0
2017-Sep-12 03:50N 47°17' W 002°12'0 0.0
2017-Sep-12 03:29N 47°17' W 002°12'0 0.0
2017-Sep-12 02:59N 47°17' W 002°12'0 0.0
2017-Sep-12 02:23N 47°17' W 002°12'0 0.0
2017-Sep-12 01:59N 47°17' W 002°12'  
Track history (hours):
 
Tides and Currents Weather Stations Pressure Air Temp Water Temp Dewpoint Dewpoint Depression Visibility Wind Speed Wind Dir Waves Ship Positions

Omalius

Last reported at 2017-Sep-22 01:58 UTC. Time now 2017-Sep-22 22:39 UTC.
Position N 47°17' W 002°12'.

Length 83 m; draft 6 m.

Type: Other ship. MMSI: 205682000.

Date/timePositionNaut miles runAvg speedWind from/ knotsBaromVisibWave heightAir tempDewpointWater temp
2017-Sep-22 01:58N 47°17' W 002°12'0 0.0
2017-Sep-22 01:28N 47°17' W 002°12'0 0.0
2017-Sep-22 00:58N 47°17' W 002°12'0 0.0
2017-Sep-22 00:25N 47°17' W 002°12'0 0.0
2017-Sep-21 23:58N 47°17' W 002°12'0 0.0
2017-Sep-21 23:28N 47°17' W 002°12'0 0.0
2017-Sep-21 22:58N 47°17' W 002°12'0 0.0
2017-Sep-21 22:22N 47°17' W 002°12'0 0.0
2017-Sep-21 21:58N 47°17' W 002°12'0 0.0
2017-Sep-21 21:25N 47°17' W 002°12'0 0.0
2017-Sep-21 20:55N 47°17' W 002°12'0 0.0
2017-Sep-21 20:25N 47°17' W 002°12'0 0.0
2017-Sep-21 19:55N 47°17' W 002°12'0 0.0
2017-Sep-21 19:28N 47°17' W 002°12'0 0.0
2017-Sep-21 18:58N 47°17' W 002°12'0 0.0
2017-Sep-21 18:25N 47°17' W 002°12'0 0.0
2017-Sep-21 17:58N 47°17' W 002°12'0 0.0
2017-Sep-21 17:28N 47°17' W 002°12'0 0.0
2017-Sep-21 16:58N 47°17' W 002°12'0 0.0
2017-Sep-21 16:28N 47°17' W 002°12'0 0.0
2017-Sep-21 11:43N 47°17' W 002°12'0 0.0
2017-Sep-21 11:28N 47°17' W 002°12'0 0.0
2017-Sep-21 10:58N 47°17' W 002°12'0 0.0
2017-Sep-21 10:28N 47°17' W 002°12'0 0.0
2017-Sep-21 09:58N 47°17' W 002°12'0 0.0
2017-Sep-21 09:28N 47°17' W 002°12'0 0.0
2017-Sep-21 08:58N 47°17' W 002°12'0 0.0
2017-Sep-21 08:28N 47°17' W 002°12'0 0.0
2017-Sep-21 07:58N 47°17' W 002°12'0 0.0
2017-Sep-21 07:28N 47°17' W 002°12'0 0.0
2017-Sep-21 06:58N 47°17' W 002°12'0 0.0
2017-Sep-21 06:22N 47°17' W 002°12'0 0.0
2017-Sep-21 05:55N 47°17' W 002°12'0 0.0
2017-Sep-21 05:28N 47°17' W 002°12'0 0.0
2017-Sep-21 05:00N 47°17' W 002°12'0 0.0
2017-Sep-21 04:30N 47°17' W 002°12'1 1.3
2017-Sep-21 04:00N 47°17' W 002°12'0 0.5
2017-Sep-21 03:30N 47°16' W 002°12'1 1.1
2017-Sep-21 03:00N 47°16' W 002°12'4 7.7
2017-Sep-21 02:30N 47°13' W 002°16'511.0
2017-Sep-21 02:00N 47°08' W 002°21'3 5.8
2017-Sep-21 01:30N 47°06' W 002°23'5 9.5
2017-Sep-21 01:00N 47°03' W 002°29'5 9.6
2017-Sep-21 00:30N 47°01' W 002°35'5 9.2
2017-Sep-21 00:00N 46°59' W 002°41'1 1.9
2017-Sep-20 23:30N 46°58' W 002°40'3 6.7
2017-Sep-20 23:00N 46°55' W 002°38'3 6.9
2017-Sep-20 22:30N 46°53' W 002°34'0 0.0
2017-Sep-20 22:00N 46°53' W 002°34'0 0.0
2017-Sep-20 21:30N 46°53' W 002°34'0 0.0
2017-Sep-20 21:00N 46°53' W 002°34'0 0.0
2017-Sep-20 20:30N 46°53' W 002°34'0 0.0
2017-Sep-20 20:01N 46°53' W 002°34'0 0.0
2017-Sep-20 19:30N 46°53' W 002°34'0 0.0
2017-Sep-20 19:00N 46°53' W 002°34'0 0.0
2017-Sep-20 18:30N 46°53' W 002°34'0 0.0
2017-Sep-20 18:00N 46°53' W 002°34'0 0.0
2017-Sep-20 17:30N 46°53' W 002°34'0 0.0
2017-Sep-20 16:59N 46°53' W 002°34'0 0.0
2017-Sep-20 16:30N 46°53' W 002°34'0 0.0
2017-Sep-20 15:59N 46°53' W 002°34'0 0.0
2017-Sep-20 15:30N 46°53' W 002°34'0 0.0
2017-Sep-20 15:00N 46°53' W 002°34'0 0.0
2017-Sep-20 14:00N 46°53' W 002°34'0 0.0
2017-Sep-20 13:29N 46°53' W 002°34'0 0.0
2017-Sep-20 13:00N 46°53' W 002°34'0 0.0
2017-Sep-20 12:30N 46°53' W 002°34'0 0.0
2017-Sep-20 11:59N 46°53' W 002°34'0 0.0
2017-Sep-20 11:30N 46°53' W 002°34'0 0.0
2017-Sep-20 10:59N 46°53' W 002°34'0 0.0
2017-Sep-20 10:30N 46°53' W 002°34'0 0.0
2017-Sep-20 09:59N 46°53' W 002°34'0 0.0
2017-Sep-20 09:30N 46°53' W 002°34'0 0.0
2017-Sep-20 09:00N 46°53' W 002°34'0 0.0
2017-Sep-20 08:30N 46°53' W 002°34'0 0.0
2017-Sep-20 08:00N 46°53' W 002°34'0 0.0
2017-Sep-20 07:30N 46°53' W 002°34'0 0.0
2017-Sep-20 07:00N 46°53' W 002°34'0 0.0
2017-Sep-20 06:30N 46°53' W 002°34'0 0.0
2017-Sep-20 06:00N 46°53' W 002°34'0 0.0
2017-Sep-20 05:30N 46°53' W 002°34'0 0.0
2017-Sep-20 05:00N 46°53' W 002°34'0 0.0
2017-Sep-20 04:30N 46°53' W 002°34'0 0.0
2017-Sep-20 04:00N 46°53' W 002°34'0 0.0
2017-Sep-20 03:30N 46°53' W 002°34'0 0.0
2017-Sep-20 03:00N 46°53' W 002°34'0 0.0
2017-Sep-20 02:30N 46°53' W 002°34'0 0.0
2017-Sep-20 01:59N 46°53' W 002°34'0 0.0
2017-Sep-20 01:30N 46°53' W 002°34'0 0.0
2017-Sep-20 01:00N 46°53' W 002°34'0 0.0
2017-Sep-20 00:30N 46°53' W 002°34'0 0.0
2017-Sep-20 00:00N 46°53' W 002°34'0 0.0
2017-Sep-19 23:30N 46°53' W 002°34'0 0.0
2017-Sep-19 23:00N 46°53' W 002°34'0 0.0
2017-Sep-19 22:30N 46°53' W 002°34'0 0.0
2017-Sep-19 22:00N 46°53' W 002°34'0 0.0
2017-Sep-19 21:30N 46°53' W 002°34'0 0.0
2017-Sep-19 20:55N 46°53' W 002°34'0 0.0
2017-Sep-19 20:30N 46°53' W 002°34'0 0.0
2017-Sep-19 20:00N 46°53' W 002°34'0 0.0
2017-Sep-19 19:27N 46°53' W 002°34'0 0.0
2017-Sep-19 19:00N 46°53' W 002°34'0 0.0
2017-Sep-19 18:29N 46°53' W 002°34'0 0.0
2017-Sep-19 18:00N 46°53' W 002°34'0 0.0
2017-Sep-19 17:25N 46°53' W 002°34'0 0.0
2017-Sep-19 16:28N 46°53' W 002°34'0 0.0
2017-Sep-19 12:50N 46°53' W 002°34'0 0.0
2017-Sep-19 12:21N 46°53' W 002°34'0 0.0
2017-Sep-19 11:14N 46°53' W 002°34'0 0.0
2017-Sep-19 10:44N 46°53' W 002°34'0 0.0
2017-Sep-19 10:02N 46°53' W 002°34'0 0.0
2017-Sep-19 09:57N 46°53' W 002°34'0 0.0
2017-Sep-19 09:30N 46°53' W 002°34'0 0.0
2017-Sep-19 08:55N 46°53' W 002°34'0 0.0
2017-Sep-19 08:30N 46°53' W 002°34'0 0.0
2017-Sep-19 08:00N 46°53' W 002°34'0 0.0
2017-Sep-19 07:18N 46°53' W 002°34'0 0.0
2017-Sep-19 06:58N 46°53' W 002°34'0 0.0
2017-Sep-19 06:13N 46°53' W 002°34'0 0.0
2017-Sep-19 05:51N 46°53' W 002°34'0 0.0
2017-Sep-19 05:20N 46°53' W 002°34'0 0.0
2017-Sep-19 04:32N 46°53' W 002°34'0 0.0
2017-Sep-19 04:23N 46°53' W 002°34'0 0.0
2017-Sep-19 03:58N 46°53' W 002°34'0 0.0
2017-Sep-19 03:18N 46°53' W 002°34'0 0.0
2017-Sep-19 02:57N 46°53' W 002°34'0 0.0
2017-Sep-19 02:30N 46°53' W 002°34'0 0.0
2017-Sep-19 01:56N 46°53' W 002°34'0 0.0
2017-Sep-19 01:16N 46°53' W 002°34'0 0.0
2017-Sep-19 00:59N 46°53' W 002°34'0 0.0
2017-Sep-19 00:25N 46°53' W 002°34'0 0.0
2017-Sep-18 23:57N 46°53' W 002°34'0 0.0
2017-Sep-18 23:25N 46°53' W 002°34'0 0.0
2017-Sep-18 22:44N 46°53' W 002°34'0 0.1
2017-Sep-18 22:24N 46°53' W 002°34'0 0.9
2017-Sep-18 21:59N 46°53' W 002°35'4 7.6
2017-Sep-18 21:27N 46°50' W 002°31'1 0.1
2017-Sep-18 09:02N 46°49' W 002°29'0 0.0
2017-Sep-18 08:51N 46°49' W 002°29'0 0.0
2017-Sep-18 08:28N 46°49' W 002°29'0 0.0
2017-Sep-18 06:32N 46°49' W 002°29'0 0.0
2017-Sep-18 05:28N 46°49' W 002°29'0 0.0
2017-Sep-18 05:00N 46°49' W 002°29'0 0.0
2017-Sep-18 04:26N 46°49' W 002°29'0 0.0
2017-Sep-18 03:59N 46°49' W 002°29'0 0.0
2017-Sep-18 03:14N 46°49' W 002°29'0 0.0
2017-Sep-18 02:52N 46°49' W 002°29'0 0.0
2017-Sep-18 02:30N 46°49' W 002°29'0 0.0
2017-Sep-18 01:52N 46°49' W 002°29'0 0.0
2017-Sep-18 00:57N 46°49' W 002°29'0 0.0
2017-Sep-16 04:21N 46°49' W 002°29'0 0.2
2017-Sep-16 04:00N 46°49' W 002°29'0 0.0
2017-Sep-15 23:24N 46°49' W 002°29'0 0.0
2017-Sep-15 22:50N 46°49' W 002°29'14 1.5
2017-Sep-15 13:26N 47°03' W 002°28'611.0
2017-Sep-15 12:55N 47°07' W 002°23'410.0
2017-Sep-15 12:30N 47°10' W 002°19'510.5
2017-Sep-15 12:00N 47°14' W 002°15'2 4.9
2017-Sep-15 11:30N 47°16' W 002°12'0 0.8
2017-Sep-15 11:00N 47°17' W 002°12'0 0.9
2017-Sep-15 10:30N 47°17' W 002°12'0 0.0
2017-Sep-15 10:00N 47°17' W 002°12'0 0.0
2017-Sep-15 09:28N 47°17' W 002°12'0 0.0
2017-Sep-15 08:58N 47°17' W 002°12'0 0.0
2017-Sep-15 08:28N 47°17' W 002°12'0 0.0
2017-Sep-15 07:58N 47°17' W 002°12'0 0.0
2017-Sep-15 07:25N 47°17' W 002°12'0 0.0
2017-Sep-15 06:58N 47°17' W 002°12'0 0.0
2017-Sep-15 06:25N 47°17' W 002°12'0 0.0
2017-Sep-15 05:58N 47°17' W 002°12'0 0.0
2017-Sep-15 05:28N 47°17' W 002°12'0 0.0
2017-Sep-15 04:58N 47°17' W 002°12'0 0.0
2017-Sep-15 04:28N 47°17' W 002°12'0 0.0
2017-Sep-15 03:58N 47°17' W 002°12'0 0.0
2017-Sep-15 03:28N 47°17' W 002°12'0 0.0
2017-Sep-15 02:58N 47°17' W 002°12'0 0.0
2017-Sep-15 02:28N 47°17' W 002°12'0 0.0
2017-Sep-15 01:58N 47°17' W 002°12'0 0.0
2017-Sep-15 01:25N 47°17' W 002°12'0 0.0
2017-Sep-15 00:58N 47°17' W 002°12'0 0.0
2017-Sep-15 00:28N 47°17' W 002°12'0 0.0
2017-Sep-14 23:58N 47°17' W 002°12'0 0.0
2017-Sep-14 23:25N 47°17' W 002°12'0 0.0
2017-Sep-14 22:55N 47°17' W 002°12'0 0.0
2017-Sep-14 22:28N 47°17' W 002°12'0 0.0
2017-Sep-14 21:58N 47°17' W 002°12'0 0.0
2017-Sep-14 21:28N 47°17' W 002°12'0 0.0
2017-Sep-14 20:58N 47°17' W 002°12'0 0.0
2017-Sep-14 20:28N 47°17' W 002°12'0 0.0
2017-Sep-14 19:58N 47°17' W 002°12'0 0.0
2017-Sep-14 18:46N 47°17' W 002°12'0 0.0
2017-Sep-14 18:19N 47°17' W 002°12'0 0.0
2017-Sep-14 17:55N 47°17' W 002°12'0 0.0
2017-Sep-14 17:22N 47°17' W 002°12'0 0.0
2017-Sep-14 16:58N 47°17' W 002°12'0 0.0
2017-Sep-14 16:28N 47°17' W 002°12'0 0.0
2017-Sep-14 15:57N 47°17' W 002°12'0 0.0
2017-Sep-14 15:24N 47°17' W 002°12'0 0.0
2017-Sep-14 08:15N 47°17' W 002°12'0 0.0
2017-Sep-14 07:51N 47°17' W 002°12'0 0.0
2017-Sep-14 07:24N 47°17' W 002°12'0 0.0
2017-Sep-14 06:57N 47°17' W 002°12'0 0.0
2017-Sep-14 06:30N 47°17' W 002°12'0 0.0
2017-Sep-14 05:57N 47°17' W 002°12'0 0.0
2017-Sep-14 05:09N 47°17' W 002°12'0 0.0
2017-Sep-14 04:57N 47°17' W 002°12'0 0.0
2017-Sep-14 04:27N 47°17' W 002°12'0 0.0
2017-Sep-14 04:00N 47°17' W 002°12'0 0.0
2017-Sep-14 03:21N 47°17' W 002°12'0 0.0
2017-Sep-14 02:57N 47°17' W 002°12'0 0.0
2017-Sep-14 02:27N 47°17' W 002°12'0 0.0
2017-Sep-14 02:00N 47°17' W 002°12'0 0.0
2017-Sep-14 01:30N 47°17' W 002°12'0 0.0
2017-Sep-14 01:00N 47°17' W 002°12'0 0.0
2017-Sep-14 00:24N 47°17' W 002°12'0 0.0
2017-Sep-14 00:00N 47°17' W 002°12'0 0.0
2017-Sep-13 23:30N 47°17' W 002°12'0 0.0
2017-Sep-13 22:45N 47°17' W 002°12'0 0.0
2017-Sep-13 22:30N 47°17' W 002°12'0 0.0
2017-Sep-13 21:57N 47°17' W 002°12'0 0.0
2017-Sep-13 21:27N 47°17' W 002°12'0 0.0
2017-Sep-13 20:57N 47°17' W 002°12'0 0.0
2017-Sep-13 20:18N 47°17' W 002°12'0 0.0
2017-Sep-13 19:57N 47°17' W 002°12'0 0.0
2017-Sep-13 19:27N 47°17' W 002°12'0 0.0
2017-Sep-13 19:00N 47°17' W 002°12'0 0.0
2017-Sep-13 18:27N 47°17' W 002°12'0 0.0
2017-Sep-13 18:00N 47°17' W 002°12'0 0.0
2017-Sep-13 17:18N 47°17' W 002°12'0 0.0
2017-Sep-13 16:57N 47°17' W 002°12'0 0.0
2017-Sep-13 15:48N 47°17' W 002°12'0 0.0
2017-Sep-13 15:30N 47°17' W 002°12'0 0.0
2017-Sep-13 15:00N 47°17' W 002°12'0 0.0
2017-Sep-13 14:21N 47°17' W 002°12'0 0.0
2017-Sep-13 13:57N 47°17' W 002°12'0 0.0
2017-Sep-13 13:15N 47°17' W 002°12'0 0.0
2017-Sep-13 13:00N 47°17' W 002°12'0 0.0
2017-Sep-13 12:30N 47°17' W 002°12'0 0.0
2017-Sep-13 11:51N 47°17' W 002°12'0 0.0
2017-Sep-13 11:30N 47°17' W 002°12'0 0.0
2017-Sep-13 10:33N 47°17' W 002°12'0 0.0
2017-Sep-13 10:06N 47°17' W 002°12'0 0.0
2017-Sep-13 10:00N 47°17' W 002°12'0 0.0
2017-Sep-13 08:27N 47°17' W 002°12'0 0.0
2017-Sep-13 07:57N 47°17' W 002°12'0 0.0
2017-Sep-13 07:24N 47°17' W 002°12'0 0.0
2017-Sep-13 06:57N 47°17' W 002°12'0 0.0
2017-Sep-13 06:27N 47°17' W 002°12'0 0.0
2017-Sep-13 06:00N 47°17' W 002°12'0 0.0
2017-Sep-13 05:30N 47°17' W 002°12'0 0.0
2017-Sep-13 05:00N 47°17' W 002°12'0 0.0
2017-Sep-13 04:30N 47°17' W 002°12'0 0.0
2017-Sep-13 03:51N 47°17' W 002°12'0 0.0
2017-Sep-13 03:24N 47°17' W 002°12'0 0.0
2017-Sep-13 03:00N 47°17' W 002°12'0 0.0
2017-Sep-13 02:30N 47°17' W 002°12'0 0.0
2017-Sep-13 02:00N 47°17' W 002°12'0 0.0
2017-Sep-13 01:27N 47°17' W 002°12'0 0.0
2017-Sep-13 01:00N 47°17' W 002°12'0 0.0
2017-Sep-13 00:27N 47°17' W 002°12'0 0.0
2017-Sep-12 23:59N 47°17' W 002°12'0 0.0
2017-Sep-12 23:29N 47°17' W 002°12'0 0.0
2017-Sep-12 22:56N 47°17' W 002°12'0 0.0
2017-Sep-12 22:29N 47°17' W 002°12'0 0.0
2017-Sep-12 21:59N 47°17' W 002°12'0 0.0
2017-Sep-12 21:29N 47°17' W 002°12'0 0.0
2017-Sep-12 20:59N 47°17' W 002°12'0 0.0
2017-Sep-12 20:29N 47°17' W 002°12'0 0.0
2017-Sep-12 19:59N 47°17' W 002°12'0 0.0
2017-Sep-12 19:29N 47°17' W 002°12'0 0.0
2017-Sep-12 18:53N 47°17' W 002°12'0 0.0
2017-Sep-12 18:29N 47°17' W 002°12'0 0.0
2017-Sep-12 17:59N 47°17' W 002°12'0 0.0
2017-Sep-12 15:47N 47°17' W 002°12'0 0.0
2017-Sep-12 15:17N 47°17' W 002°12'0 0.0
2017-Sep-12 14:53N 47°17' W 002°12'0 0.0
2017-Sep-12 14:26N 47°17' W 002°12'0 0.0
2017-Sep-12 13:23N 47°17' W 002°12'0 0.0
2017-Sep-12 12:56N 47°17' W 002°12'0 0.0
2017-Sep-12 12:29N 47°17' W 002°12'0 0.0
2017-Sep-12 10:23N 47°17' W 002°12'0 0.0
2017-Sep-12 09:56N 47°17' W 002°12'0 0.0
2017-Sep-12 09:23N 47°17' W 002°12'0 0.0
2017-Sep-12 08:53N 47°17' W 002°12'0 0.0
2017-Sep-12 08:29N 47°17' W 002°12'0 0.0
2017-Sep-12 07:59N 47°17' W 002°12'0 0.0
2017-Sep-12 07:26N 47°17' W 002°12'0 0.0
2017-Sep-12 06:53N 47°17' W 002°12'0 0.0
2017-Sep-12 06:29N 47°17' W 002°12'0 0.0
2017-Sep-12 05:59N 47°17' W 002°12'0 0.0
2017-Sep-12 05:26N 47°17' W 002°12'0 0.0
2017-Sep-12 04:59N 47°17' W 002°12'0 0.0
2017-Sep-12 04:29N 47°17' W 002°12'0 0.0
2017-Sep-12 03:50N 47°17' W 002°12'0 0.0
2017-Sep-12 03:29N 47°17' W 002°12'0 0.0
2017-Sep-12 02:59N 47°17' W 002°12'0 0.0
2017-Sep-12 02:23N 47°17' W 002°12'0 0.0
2017-Sep-12 01:59N 47°17' W 002°12'  

Dump ship's entire track history